createdAt,value
2019-02-18T17:26:27.342Z,17.13
2019-02-18T17:28:59.321Z,16.03
2019-02-18T17:31:29.912Z,16.87
2019-02-18T17:34:00.048Z,16.10
2019-02-18T17:36:30.337Z,18.93
2019-02-18T17:42:16.412Z,14.40
2019-02-18T17:44:46.432Z,13.10
2019-02-18T17:53:42.307Z,16.00
2019-02-18T17:56:12.373Z,17.07
2019-02-18T17:58:43.978Z,17.37
2019-02-18T18:01:14.067Z,13.03
2019-02-18T18:03:44.398Z,14.93
2019-02-18T18:06:14.601Z,13.30
2019-02-18T18:08:44.753Z,12.83
2019-02-18T18:11:14.873Z,13.37
2019-02-18T18:13:45.580Z,9.20
2019-02-18T18:16:15.663Z,10.13
2019-02-18T18:18:45.927Z,8.13
2019-02-18T18:21:16.071Z,8.03
2019-02-18T18:23:46.169Z,9.17
2019-02-18T18:26:16.202Z,7.70
2019-02-18T18:28:46.274Z,7.60
2019-02-18T18:31:16.373Z,5.73
2019-02-18T18:33:46.690Z,4.97
2019-02-18T18:36:16.705Z,7.27
2019-02-18T18:38:46.782Z,6.20
2019-02-18T18:41:17.450Z,7.20
2019-02-18T18:43:47.555Z,4.53
2019-02-18T18:46:17.576Z,5.90
2019-02-18T18:48:47.654Z,5.50
2019-02-18T18:51:17.575Z,4.30
2019-02-18T18:53:49.191Z,5.27
2019-02-18T18:56:19.183Z,7.07
2019-02-18T18:58:49.216Z,5.63
2019-02-18T19:01:21.249Z,5.50
2019-02-18T19:03:51.441Z,5.33
2019-02-18T19:06:21.558Z,6.50
2019-02-18T19:08:51.866Z,9.67
2019-02-18T19:11:22.013Z,5.70
2019-02-18T19:13:52.211Z,6.43
2019-02-18T19:16:22.362Z,6.27
2019-02-18T19:18:52.553Z,4.80
2019-02-18T19:21:23.088Z,7.90
2019-02-18T19:23:53.364Z,7.17
2019-02-18T19:26:23.606Z,5.30
2019-02-18T19:28:54.003Z,5.33
2019-02-18T19:31:24.269Z,6.50
2019-02-18T19:33:54.626Z,4.27
2019-02-18T19:36:25.013Z,4.73
2019-02-18T19:38:55.457Z,4.63
2019-02-18T19:41:25.886Z,5.07
2019-02-18T19:43:56.327Z,5.57
2019-02-18T19:46:27.691Z,3.83
2019-02-18T19:48:58.174Z,4.17
2019-02-18T19:51:28.551Z,3.53
2019-02-18T19:54:03.483Z,4.73
2019-02-18T19:56:34.512Z,5.57
2019-02-18T19:59:07.479Z,7.03
2019-02-18T20:01:38.591Z,7.40
2019-02-18T20:04:09.189Z,5.67
2019-02-18T20:06:39.730Z,7.97
2019-02-18T20:09:19.908Z,6.97
2019-02-18T20:11:50.406Z,5.13
2019-02-18T20:14:20.860Z,3.60
2019-02-18T20:16:51.411Z,6.80
2019-02-18T20:19:21.820Z,6.63
2019-02-18T20:21:52.265Z,5.67
2019-02-18T20:24:23.005Z,8.37
2019-02-18T20:26:53.380Z,5.83
2019-02-18T20:29:24.036Z,6.43
2019-02-18T20:31:54.487Z,7.97
2019-02-18T20:34:28.509Z,5.40
2019-02-18T20:36:59.253Z,8.37
2019-02-18T20:39:29.543Z,7.13
2019-02-18T20:42:02.335Z,6.93
2019-02-18T20:45:27.474Z,5.70
2019-02-18T20:47:58.097Z,7.67
2019-02-18T20:50:28.916Z,11.90
2019-02-18T20:52:59.596Z,8.23
2019-02-18T20:55:30.132Z,6.20
2019-02-18T20:58:00.690Z,10.77
2019-02-18T21:00:32.355Z,7.20
2019-02-18T21:03:02.828Z,11.30
2019-02-18T21:05:33.259Z,7.70
2019-02-18T21:08:04.207Z,6.07
2019-02-18T21:10:35.624Z,8.60
2019-02-18T21:13:08.269Z,5.93
2019-02-18T21:15:38.679Z,8.37
2019-02-18T21:18:09.174Z,8.60
2019-02-18T21:20:40.581Z,8.37
2019-02-18T21:23:11.044Z,7.03
2019-02-18T21:25:47.217Z,8.60
2019-02-18T21:28:21.583Z,8.07
2019-02-18T21:30:53.046Z,11.37
2019-02-18T21:33:23.200Z,20.07
2019-02-18T21:35:53.298Z,10.53
2019-02-18T21:38:23.377Z,11.07
2019-02-18T21:40:54.356Z,11.33
2019-02-18T21:43:24.488Z,10.20
2019-02-18T21:45:55.676Z,9.73
2019-02-18T21:48:25.785Z,10.80
2019-02-18T21:50:55.893Z,9.00
2019-02-18T21:53:25.975Z,8.50
2019-02-18T21:55:56.494Z,9.50
2019-02-18T21:58:27.307Z,8.67
2019-02-18T22:00:57.439Z,6.77
2019-02-18T22:03:28.629Z,10.60
